createdAt,value
2022-08-07T00:01:44.754Z,44.32
2022-08-07T00:04:27.951Z,44.03
2022-08-07T00:07:40.928Z,44.38
2022-08-07T00:10:48.367Z,44.29
2022-08-07T00:14:01.864Z,44.40
2022-08-07T00:17:07.213Z,45.63
2022-08-07T00:20:15.605Z,52.97
2022-08-07T00:23:34.874Z,51.94
2022-08-07T00:26:59.000Z,53.47
2022-08-07T00:30:03.243Z,53.31
2022-08-07T00:33:09.077Z,53.79
2022-08-07T00:36:13.742Z,53.71
2022-08-07T00:39:21.076Z,53.94
2022-08-07T00:42:29.279Z,53.46
2022-08-07T00:45:34.043Z,54.29
2022-08-07T00:48:42.015Z,53.58
2022-08-07T00:51:56.802Z,54.84
2022-08-07T00:55:04.776Z,53.74
2022-08-07T00:58:15.263Z,53.27
2022-08-07T01:01:20.434Z,53.56
2022-08-07T01:04:26.352Z,53.64
2022-08-07T01:07:43.500Z,52.80
2022-08-07T01:10:56.547Z,53.78
2022-08-07T01:14:15.454Z,53.54
2022-08-07T01:17:33.687Z,53.62
2022-08-07T01:21:01.363Z,52.34
2022-08-07T01:24:21.229Z,53.00
2022-08-07T01:27:32.287Z,53.52
2022-08-07T01:30:56.015Z,53.43
2022-08-07T01:34:04.203Z,53.04
2022-08-07T01:37:40.694Z,53.57
2022-08-07T01:40:59.576Z,52.45
2022-08-07T01:44:14.365Z,52.53
2022-08-07T01:48:21.404Z,52.82
2022-08-07T01:54:37.779Z,52.95
2022-08-07T01:58:28.922Z,53.29
2022-08-07T02:02:02.386Z,52.59
2022-08-07T02:05:43.486Z,52.87
2022-08-07T02:08:44.741Z,53.14
2022-08-07T02:12:04.677Z,52.57
2022-08-07T02:15:18.059Z,53.06
2022-08-07T02:18:33.361Z,52.78
2022-08-07T02:21:56.528Z,52.10
2022-08-07T02:25:07.437Z,53.09
2022-08-07T02:28:24.410Z,53.35
2022-08-07T02:31:39.270Z,53.77
2022-08-07T02:34:55.716Z,52.99
2022-08-07T02:38:07.608Z,52.89
2022-08-07T02:41:33.434Z,53.80
2022-08-07T02:44:58.414Z,54.13
2022-08-07T02:48:17.596Z,53.30
2022-08-07T02:51:49.768Z,53.93
2022-08-07T02:55:27.251Z,54.58
2022-08-07T02:58:39.828Z,54.88
2022-08-07T03:02:02.220Z,55.39
2022-08-07T03:05:25.557Z,55.24
2022-08-07T03:08:39.874Z,55.58
2022-08-07T03:11:52.287Z,55.81
2022-08-07T03:15:30.198Z,55.11
2022-08-07T03:18:48.091Z,54.61
2022-08-07T03:22:04.632Z,55.46
2022-08-07T03:25:40.331Z,55.62
2022-08-07T03:29:00.228Z,55.00
2022-08-07T03:32:29.584Z,55.37
2022-08-07T03:36:04.639Z,55.68
2022-08-07T03:40:00.141Z,55.20
2022-08-07T03:43:14.440Z,55.90
2022-08-07T03:50:05.790Z,55.97
2022-08-07T03:54:00.547Z,56.17
2022-08-07T03:57:09.081Z,56.03
2022-08-07T04:00:30.263Z,55.63
2022-08-07T04:03:38.817Z,56.12
2022-08-07T04:06:56.050Z,56.49
2022-08-07T04:10:15.377Z,56.92
2022-08-07T04:13:27.768Z,56.70
2022-08-07T04:16:33.595Z,56.33
2022-08-07T04:19:52.667Z,55.99
2022-08-07T04:23:02.090Z,56.30
2022-08-07T04:26:16.900Z,56.49
2022-08-07T04:29:40.259Z,56.13
2022-08-07T04:32:47.989Z,55.29
2022-08-07T04:35:55.655Z,55.69
2022-08-07T04:39:08.677Z,55.50
2022-08-07T04:42:15.516Z,54.29
2022-08-07T04:45:44.534Z,53.23
2022-08-07T04:49:18.043Z,52.70
2022-08-07T04:52:46.688Z,51.97
2022-08-07T04:58:13.817Z,50.91
2022-08-07T05:00:12.442Z,51.00
2022-08-07T05:03:31.089Z,50.22
2022-08-07T05:06:43.338Z,49.48
2022-08-07T05:09:59.150Z,48.64
2022-08-07T05:14:55.702Z,48.67
2022-08-07T05:16:44.140Z,48.49
2022-08-07T05:19:54.295Z,48.96
2022-08-07T05:23:03.606Z,49.20
2022-08-07T05:26:18.680Z,48.56
2022-08-07T05:29:48.076Z,48.92
2022-08-07T05:32:58.268Z,48.72
2022-08-07T05:36:12.255Z,50.12
2022-08-07T05:40:05.631Z,50.87
2022-08-07T05:42:55.916Z,51.63
2022-08-07T05:46:02.632Z,51.30
2022-08-07T05:49:12.563Z,50.46
2022-08-07T05:52:29.832Z,49.84
2022-08-07T05:56:02.439Z,49.89
2022-08-07T05:59:03.982Z,49.54
2022-08-07T06:02:21.491Z,49.16
2022-08-07T06:05:36.587Z,49.81
2022-08-07T06:08:49.188Z,49.60
2022-08-07T06:11:56.548Z,50.43
2022-08-07T06:15:05.411Z,50.44
2022-08-07T06:18:10.794Z,50.82
2022-08-07T06:22:15.159Z,50.14
2022-08-07T06:24:53.061Z,49.82
2022-08-07T06:28:06.526Z,49.24
2022-08-07T06:31:11.963Z,49.81
2022-08-07T06:34:16.277Z,49.44
2022-08-07T06:37:24.991Z,49.03
2022-08-07T06:40:54.679Z,49.21
2022-08-07T06:44:25.019Z,49.27
2022-08-07T06:47:48.184Z,48.93
2022-08-07T06:51:09.467Z,49.58
2022-08-07T06:55:32.302Z,49.81
2022-08-07T06:57:47.771Z,49.10
2022-08-07T07:01:05.895Z,49.15
2022-08-07T07:04:32.639Z,48.75
2022-08-07T07:07:59.734Z,48.34
2022-08-07T07:11:13.808Z,49.12
2022-08-07T07:14:32.471Z,49.47
2022-08-07T07:17:45.397Z,48.76
2022-08-07T07:20:56.978Z,49.93
2022-08-07T07:24:08.691Z,49.13
2022-08-07T07:27:22.044Z,48.82
2022-08-07T07:30:37.730Z,48.79
2022-08-07T07:33:44.579Z,48.45
2022-08-07T07:37:14.992Z,48.62
2022-08-07T07:40:26.754Z,48.20
2022-08-07T07:43:48.146Z,47.99
2022-08-07T07:47:15.970Z,47.78
2022-08-07T07:50:59.833Z,47.40
2022-08-07T07:54:22.652Z,47.95
2022-08-07T07:57:51.501Z,47.22
2022-08-07T08:00:57.343Z,46.53
2022-08-07T08:04:11.619Z,46.66
2022-08-07T08:07:20.175Z,45.88
2022-08-07T08:10:35.589Z,45.60
2022-08-07T08:13:54.614Z,45.47
2022-08-07T08:17:56.563Z,45.47
2022-08-07T08:20:32.226Z,44.92
2022-08-07T08:23:56.162Z,45.78
2022-08-07T08:27:10.351Z,45.68
2022-08-07T08:30:17.480Z,44.77
2022-08-07T08:33:33.384Z,45.00
2022-08-07T08:36:46.178Z,45.79
2022-08-07T08:39:58.232Z,45.43
2022-08-07T08:43:10.581Z,45.87
2022-08-07T08:46:23.064Z,46.19
2022-08-07T08:49:46.400Z,45.41
2022-08-07T08:52:59.008Z,46.74
2022-08-07T08:56:07.327Z,46.11
2022-08-07T08:59:26.773Z,45.26
2022-08-07T09:02:40.335Z,45.73
2022-08-07T09:05:56.875Z,45.41
2022-08-07T09:09:20.810Z,45.74
2022-08-07T09:12:53.178Z,45.13
2022-08-07T09:16:24.119Z,44.43
2022-08-07T09:19:53.744Z,43.85
2022-08-07T09:24:32.611Z,44.42
2022-08-07T09:26:51.108Z,44.15
2022-08-07T09:30:05.534Z,44.48
2022-08-07T09:33:52.639Z,44.89
2022-08-07T09:37:03.190Z,44.65
2022-08-07T09:40:25.331Z,45.88
2022-08-07T09:44:06.446Z,45.36
2022-08-07T09:47:49.518Z,44.74
2022-08-07T09:51:14.524Z,44.48
2022-08-07T09:54:36.888Z,45.13
2022-08-07T09:58:17.118Z,45.76
2022-08-07T10:01:54.393Z,44.57
2022-08-07T10:05:29.684Z,45.49
2022-08-07T10:09:10.672Z,44.79
2022-08-07T10:12:40.419Z,44.39
2022-08-07T10:16:10.788Z,43.36
2022-08-07T10:19:27.388Z,43.86
2022-08-07T10:22:50.841Z,43.37
2022-08-07T10:26:03.476Z,42.48
2022-08-07T10:29:35.124Z,42.54
2022-08-07T10:33:01.386Z,42.66
2022-08-07T10:36:29.900Z,42.84
2022-08-07T10:40:06.007Z,43.38
2022-08-07T10:43:21.258Z,42.85
2022-08-07T10:46:44.386Z,42.86
2022-08-07T10:49:58.254Z,42.35
2022-08-07T10:53:11.298Z,42.55
2022-08-07T10:56:33.218Z,43.33
2022-08-07T10:59:54.792Z,43.00
2022-08-07T11:03:10.973Z,42.38
2022-08-07T11:06:23.515Z,42.77
2022-08-07T11:10:09.714Z,42.03
2022-08-07T11:13:42.485Z,42.11
2022-08-07T11:16:37.884Z,42.34
2022-08-07T11:19:51.884Z,42.27
2022-08-07T11:23:04.325Z,42.33
2022-08-07T11:26:19.295Z,42.59
2022-08-07T11:30:42.925Z,41.66
2022-08-07T11:34:00.216Z,42.36
2022-08-07T11:37:14.717Z,42.87
2022-08-07T11:40:33.068Z,42.08
2022-08-07T11:44:10.720Z,42.56
2022-08-07T11:47:38.685Z,42.23
2022-08-07T11:51:09.783Z,42.16
2022-08-07T11:54:35.552Z,42.16
2022-08-07T11:57:59.790Z,42.00
2022-08-07T12:01:25.861Z,41.24
2022-08-07T12:05:28.575Z,41.48
2022-08-07T12:08:49.830Z,41.38
2022-08-07T12:12:15.786Z,41.46
2022-08-07T12:16:30.422Z,41.92
2022-08-07T12:20:02.581Z,40.58
2022-08-07T12:23:37.416Z,40.60
2022-08-07T12:27:05.068Z,40.96
2022-08-07T12:30:23.470Z,41.49
2022-08-07T12:34:26.003Z,41.64
2022-08-07T12:38:10.147Z,40.70
2022-08-07T12:41:02.551Z,41.15
2022-08-07T12:44:17.269Z,40.96
2022-08-07T12:47:37.263Z,41.29
2022-08-07T12:50:52.975Z,41.07
2022-08-07T12:54:37.838Z,41.66
2022-08-07T12:58:07.433Z,40.49
2022-08-07T13:01:38.027Z,40.89
2022-08-07T13:06:04.820Z,41.12
2022-08-07T13:10:17.771Z,40.87
2022-08-07T13:13:02.572Z,40.53
2022-08-07T13:16:18.172Z,40.99
2022-08-07T13:19:51.592Z,40.90
2022-08-07T13:23:03.936Z,40.97
2022-08-07T13:26:20.010Z,40.47
2022-08-07T13:29:42.494Z,40.48
2022-08-07T13:34:30.353Z,40.93
2022-08-07T13:41:41.340Z,40.56
2022-08-07T13:45:40.586Z,40.93
2022-08-07T13:48:34.532Z,40.66
2022-08-07T13:52:22.300Z,40.49
2022-08-07T13:55:38.495Z,40.77
2022-08-07T13:59:21.549Z,40.79
2022-08-07T14:02:33.622Z,41.34
2022-08-07T14:06:08.449Z,41.04
2022-08-07T14:10:01.992Z,40.91
2022-08-07T14:13:02.645Z,40.74
2022-08-07T14:16:32.990Z,40.86
2022-08-07T14:20:43.530Z,40.96
2022-08-07T14:23:31.498Z,41.25
2022-08-07T14:27:02.418Z,40.66
2022-08-07T14:30:33.579Z,40.59
2022-08-07T14:33:44.148Z,40.29
2022-08-07T14:36:55.851Z,40.70
2022-08-07T14:40:17.750Z,40.82
2022-08-07T14:43:55.257Z,40.94
2022-08-07T14:47:14.229Z,40.54
2022-08-07T14:50:28.333Z,40.76
2022-08-07T14:54:08.731Z,40.77
2022-08-07T14:57:04.838Z,41.00
2022-08-07T15:00:10.062Z,41.17
2022-08-07T15:03:19.660Z,40.70
2022-08-07T15:06:27.388Z,41.23
2022-08-07T15:09:58.818Z,41.50
2022-08-07T15:13:01.437Z,41.91
2022-08-07T15:16:18.356Z,41.50
2022-08-07T15:20:31.324Z,41.49
2022-08-07T15:26:39.538Z,41.37
2022-08-07T15:33:19.476Z,41.16
2022-08-07T15:37:04.045Z,41.22
2022-08-07T15:39:58.310Z,41.01
2022-08-07T15:43:53.196Z,40.87
2022-08-07T15:53:53.090Z,41.06
2022-08-07T15:57:01.917Z,40.94
2022-08-07T16:00:07.767Z,40.76
2022-08-07T16:03:21.653Z,40.78
2022-08-07T16:06:51.370Z,41.02
2022-08-07T16:10:14.214Z,41.25
2022-08-07T16:13:58.805Z,41.49
2022-08-07T16:18:01.816Z,41.41
2022-08-07T16:20:55.260Z,41.71
2022-08-07T16:24:33.648Z,41.54
2022-08-07T16:27:57.143Z,41.85
2022-08-07T16:31:11.797Z,41.67
2022-08-07T16:34:48.144Z,41.58
2022-08-07T16:38:29.593Z,42.00
2022-08-07T16:42:12.787Z,41.56
2022-08-07T16:46:33.543Z,41.97
2022-08-07T16:50:26.584Z,41.78
2022-08-07T16:54:01.644Z,42.04
2022-08-07T16:57:17.177Z,42.20
2022-08-07T17:00:44.597Z,42.27
2022-08-07T17:04:00.110Z,42.38
2022-08-07T17:07:55.636Z,42.16
2022-08-07T17:11:02.288Z,42.62
2022-08-07T17:14:22.091Z,42.68
2022-08-07T17:17:46.019Z,42.88
2022-08-07T17:21:02.291Z,42.50
2022-08-07T17:24:47.664Z,43.21
2022-08-07T17:28:00.524Z,43.10
2022-08-07T17:31:19.641Z,42.99
2022-08-07T17:35:30.801Z,43.08
2022-08-07T17:38:32.117Z,42.71
2022-08-07T17:42:01.496Z,42.72
2022-08-07T17:45:28.837Z,42.76
2022-08-07T17:48:52.092Z,42.92
2022-08-07T17:52:10.533Z,43.07
2022-08-07T17:55:55.795Z,43.12
2022-08-07T17:59:19.883Z,42.70
2022-08-07T18:02:39.502Z,43.08
2022-08-07T18:06:16.804Z,43.08
2022-08-07T18:10:10.769Z,43.32
2022-08-07T18:13:44.937Z,43.30
2022-08-07T18:16:58.165Z,43.78
2022-08-07T18:21:09.847Z,44.10
2022-08-07T18:24:33.923Z,44.83
2022-08-07T18:28:00.570Z,45.22
2022-08-07T18:31:18.558Z,45.46
2022-08-07T18:34:53.213Z,45.21
2022-08-07T18:38:55.881Z,45.78
2022-08-07T18:41:57.872Z,45.68
2022-08-07T18:45:44.819Z,45.93
2022-08-07T18:50:31.745Z,46.43
2022-08-07T18:52:53.847Z,47.69
2022-08-07T18:56:15.266Z,47.63
2022-08-07T18:59:47.685Z,48.24
2022-08-07T19:03:16.086Z,48.19
2022-08-07T19:06:33.848Z,48.15
2022-08-07T19:09:56.027Z,48.36
2022-08-07T19:13:12.109Z,48.24
2022-08-07T19:17:04.479Z,48.94
2022-08-07T19:20:28.807Z,49.36
2022-08-07T19:23:58.961Z,49.07
2022-08-07T19:28:56.402Z,49.61
2022-08-07T19:31:05.119Z,49.68
2022-08-07T19:34:08.771Z,49.80
2022-08-07T19:37:17.428Z,50.50
2022-08-07T19:40:30.864Z,51.04
2022-08-07T19:48:30.835Z,51.38
2022-08-07T19:51:52.953Z,51.82
2022-08-07T19:55:05.484Z,51.32
2022-08-07T19:58:18.540Z,51.56
2022-08-07T20:01:52.209Z,51.55
2022-08-07T20:05:00.482Z,51.88
2022-08-07T20:08:14.386Z,52.66
2022-08-07T20:11:34.177Z,52.42
2022-08-07T20:14:54.110Z,52.89
2022-08-07T20:18:07.023Z,52.19
2022-08-07T20:21:52.631Z,52.69
2022-08-07T20:25:06.288Z,52.67
2022-08-07T20:28:18.354Z,52.44
2022-08-07T20:31:26.133Z,52.83
2022-08-07T20:34:50.280Z,53.50
2022-08-07T20:37:59.001Z,53.09
2022-08-07T20:41:05.577Z,52.92
2022-08-07T20:44:13.033Z,53.47
2022-08-07T20:47:56.364Z,52.90
2022-08-07T20:50:56.707Z,53.22
2022-08-07T20:54:08.588Z,54.47
2022-08-07T20:57:47.512Z,54.55
2022-08-07T21:01:54.881Z,53.94
2022-08-07T21:05:10.240Z,53.37
2022-08-07T21:08:29.359Z,55.05
2022-08-07T21:11:50.154Z,54.47
2022-08-07T21:14:58.048Z,54.66
2022-08-07T21:18:33.633Z,54.23
2022-08-07T21:21:56.754Z,53.99
2022-08-07T21:25:13.350Z,54.49
2022-08-07T21:28:49.299Z,54.32
2022-08-07T21:32:43.928Z,54.60
2022-08-07T21:36:03.857Z,54.04
2022-08-07T21:39:46.853Z,54.84
2022-08-07T21:42:48.624Z,54.43
2022-08-07T21:46:05.063Z,54.27
2022-08-07T21:49:25.694Z,55.34
2022-08-07T21:52:50.418Z,55.42
2022-08-07T21:56:16.769Z,55.13
2022-08-07T22:00:04.266Z,55.49
2022-08-07T22:03:17.080Z,55.70
2022-08-07T22:06:31.257Z,55.43
2022-08-07T22:09:54.379Z,55.19
2022-08-07T22:13:02.950Z,55.30
2022-08-07T22:16:43.461Z,55.01
2022-08-07T22:19:57.247Z,56.29
2022-08-07T22:23:12.443Z,56.19
2022-08-07T22:26:23.267Z,56.24
2022-08-07T22:29:48.533Z,56.58
2022-08-07T22:33:04.871Z,55.69
2022-08-07T22:36:19.121Z,56.15
2022-08-07T22:39:51.943Z,55.60
2022-08-07T22:43:02.396Z,55.54
2022-08-07T22:47:02.301Z,55.60
2022-08-07T22:50:11.191Z,55.72
2022-08-07T22:54:07.332Z,56.20
2022-08-07T22:57:25.852Z,56.97
2022-08-07T23:00:36.088Z,57.02
2022-08-07T23:04:01.959Z,57.04
2022-08-07T23:07:40.092Z,57.36
2022-08-07T23:10:58.093Z,57.84
2022-08-07T23:14:35.081Z,56.74
2022-08-07T23:17:54.818Z,56.08
2022-08-07T23:21:16.476Z,56.13
2022-08-07T23:24:38.764Z,56.37
2022-08-07T23:28:28.979Z,57.30
2022-08-07T23:34:19.413Z,56.76
2022-08-07T23:35:22.950Z,57.99
2022-08-07T23:38:43.221Z,58.47
2022-08-07T23:42:15.535Z,57.92
2022-08-07T23:46:03.053Z,57.73
2022-08-07T23:49:26.088Z,57.46
2022-08-07T23:53:17.462Z,57.91
2022-08-07T23:56:31.129Z,56.96
